Latest Weather Observations for Oodnadatta

IDS60801

Issued at 9:01 am CDT Tuesday 6 December 2022 (issued every 10 minutes, with the page automatically refreshed every 10 minutes)

About weather observations | Map of weather stations | Latest weather observations for SA | Other Formats
Station Details ID: 017043 Name: OODNADATTA AIRPORT Lat: -27.56 Lon: 135.45 Height: 116.5 m
Data from the previous 72 hours. | See also: Recent months at Oodnadatta
Date/Time
CDT
Temp
°C
App
Temp
°C
Dew
Point
°C
Rel
Hum
%
Delta-T
°C
Wind Press
QNH
hPa
Press
MSL
hPa
Rain since
9am
mm
Dir  Spd
km/h
Gust
km/h
Spd
kts
Gust
kts
06/09:00am 31.6 26.9 9.2 25 12.7 NNE 24 32 13 17 1007.0 1006.3 0.0
06/08:30am 30.7 27.0 9.6 27 12.0 NE 19 28 10 15 1007.0 1006.3 0.0
06/08:00am 28.4 25.0 9.2 30 10.7 ENE 17 26 9 14 1006.9 1006.2 0.0
06/07:30am 26.3 23.6 8.8 33 9.6 ESE 13 17 7 9 1007.2 1006.5 0.0
06/07:00am 24.4 21.9 8.0 35 8.7 ESE 11 13 6 7 1007.0 1006.3 0.0
06/06:30am 23.3 22.2 7.0 35 8.5 E 2 9 1 5 1006.7 1006.0 0.0
06/06:00am 24.4 22.7 7.5 34 9.0 E 6 9 3 5 1006.7 1006.0 0.0
06/05:30am 25.0 23.4 8.1 34 9.1 NE 6 9 3 5 1006.6 1005.9 0.0
06/05:00am 24.7 24.1 7.4 33 9.1 CALM 0 6 0 3 1006.7 1006.0 0.0
06/04:30am 25.7 24.0 8.2 33 9.5 ENE 7 9 4 5 1006.7 1006.0 0.0
06/04:00am 26.5 24.0 8.0 31 10.0 ESE 11 13 6 7 1006.8 1006.1 0.0
06/03:30am 27.5 23.9 8.4 30 10.5 E 17 22 9 12 1006.8 1006.1 0.0
06/03:00am 28.0 24.0 8.3 29 10.8 E 19 24 10 13 1006.9 1006.2 0.0
06/02:30am 28.5 24.0 8.7 29 11.0 E 22 32 12 17 1007.0 1006.3 0.0
06/02:00am 28.9 23.8 9.1 29 11.0 E 26 33 14 18 1006.9 1006.2 0.0
06/01:30am 29.2 24.1 9.3 29 11.2 E 26 33 14 18 1007.2 1006.5 0.0
06/01:00am 29.6 23.7 9.2 28 11.4 E 30 37 16 20 1007.3 1006.6 0.0
06/12:30am 30.0 24.2 9.5 28 11.6 E 30 37 16 20 1007.7 1007.0 0.0
06/12:00am 30.3 24.0 9.8 28 11.6 E 33 41 18 22 1007.8 1007.1 0.0
 
Date/Time
CDT
Temp
°C
App
Temp
°C
Dew
Point
°C
Rel
Hum
%
Delta-T
°C
Wind Press
QNH
hPa
Press
MSL
hPa
Rain since
9am
mm
Dir  Spd
km/h
Gust
km/h
Spd
kts
Gust
kts
05/11:30pm 30.5 24.3 9.9 28 11.7 E 33 43 18 23 1008.3 1007.6 0.0
05/11:00pm 31.1 24.9 9.3 26 12.3 E 32 43 17 23 1008.4 1007.7 0.0
05/10:30pm 31.7 24.2 9.3 25 12.7 E 39 48 21 26 1008.2 1007.5 0.0
05/10:00pm 32.1 24.8 10.2 26 12.6 ESE 39 50 21 27 1007.9 1007.2 0.0
05/09:30pm 32.8 25.7 10.8 26 12.8 ESE 39 50 21 27 1007.7 1007.0 0.0
05/09:00pm 34.0 26.6 9.9 23 13.9 ESE 39 54 21 29 1007.2 1006.5 0.0
05/08:53pm 34.7 30.0 9.2 21 14.6 ESE 24 52 13 28 1007.1 1006.4 0.0
05/08:30pm 36.6 31.6 3.7 13 17.5 ESE 19 24 10 13 1006.8 1006.1 0.0
05/08:00pm 37.9 33.3 3.6 12 18.3 SE 17 20 9 11 1006.6 1005.9 0.0
05/07:30pm 38.7 34.7 3.0 11 19.0 ESE 13 17 7 9 1006.5 1005.8 0.0
05/07:00pm 39.3 34.6 3.4 11 19.3 S 17 24 9 13 1006.4 1005.6 0.0
05/06:30pm 38.8 34.8 3.1 11 19.1 SSW 13 17 7 9 1006.2 1005.4 0.0
05/06:00pm 39.2 35.1 2.0 10 19.6 WNW 13 19 7 10 1006.3 1005.5 0.0
05/05:30pm 40.2 37.0 2.8 10 20.0 WSW 9 17 5 9 1006.5 1005.8 0.0
05/05:00pm 39.9 35.1 2.5 10 19.9 S 17 20 9 11 1006.7 1006.0 0.0
05/04:30pm 39.4 35.7 2.2 10 19.7 WNW 11 20 6 11 1007.1 1006.4 0.0
05/04:00pm 39.5 36.2 2.2 10 19.7 NNW 9 24 5 13 1007.4 1006.7 0.0
05/03:30pm 39.7 34.3 2.4 10 19.8 WSW 20 32 11 17 1007.6 1006.9 0.0
05/03:00pm 39.4 35.5 3.5 11 19.3 W 13 24 7 13 1008.1 1007.4 0.0
05/02:30pm 38.9 35.5 1.8 10 19.4 E 9 15 5 8 1008.5 1007.8 0.0
05/02:00pm 38.8 35.2 3.1 11 19.0 SSW 11 19 6 10 1008.9 1008.2 0.0
05/01:30pm 38.5 33.2 2.8 11 18.9 WNW 20 33 11 18 1009.5 1008.8 0.0
05/01:00pm 38.5 35.1 4.1 12 18.6 WNW 11 17 6 9 1009.8 1009.1 0.0
05/12:30pm 37.6 33.3 3.4 12 18.2 NNE 15 24 8 13 1010.1 1009.4 0.0
05/12:00pm 36.9 32.4 4.0 13 17.6 N 17 28 9 15 1010.5 1009.7 0.0
05/11:30am 36.5 32.7 3.7 13 17.4 N 13 22 7 12 1010.6 1009.8 0.0
05/11:00am 36.1 31.8 5.4 15 16.7 NNE 17 32 9 17 1010.7 1009.9 0.0
05/10:30am 35.0 30.7 5.4 16 16.0 E 17 24 9 13 1011.0 1010.2 0.0
05/10:00am 34.2 29.4 5.7 17 15.4 E 20 28 11 15 1011.4 1010.6 0.0
05/09:30am 32.9 27.7 5.5 18 14.7 E 22 30 12 16 1011.4 1010.6 0.0
05/09:00am 31.8 25.6 6.1 20 13.8 E 28 35 15 19 1011.2 1010.4 0.0
05/08:30am 30.9 24.3 6.0 21 13.3 E 30 39 16 21 1011.1 1010.3 0.0
05/08:00am 29.3 22.7 6.0 23 12.3 E 30 37 16 20 1010.8 1010.0 0.0
05/07:30am 27.7 22.7 6.5 26 11.2 E 22 32 12 17 1010.8 1010.0 0.0
05/07:00am 26.5 21.1 6.5 28 10.5 E 24 30 13 16 1010.3 1009.6 0.0
05/06:30am 25.8 21.0 5.4 27 10.5 ESE 20 26 11 14 1010.2 1009.5 0.0
05/06:00am 26.2 20.6 5.2 26 10.8 E 24 32 13 17 1009.6 1008.9 0.0
05/05:30am 26.6 20.5 5.0 25 11.1 ESE 26 35 14 19 1009.4 1008.7 0.0
05/05:00am 25.8 21.7 4.3 25 10.8 E 15 17 8 9 1009.4 1008.7 0.0
05/04:30am 26.6 21.7 5.0 25 11.1 SE 20 24 11 13 1009.5 1008.8 0.0
05/04:00am 27.3 21.7 3.7 22 11.9 SSE 22 26 12 14 1009.5 1008.8 0.0
05/03:36am 27.9 22.8 4.2 22 12.1 SSE 20 56 11 30 1008.9 1008.2 0.0
05/03:30am 25.8 23.0 1.8 21 11.6 NE 6 24 3 13 1008.8 1008.1 0.0
05/03:00am 26.9 23.9 2.1 20 12.1 N 7 9 4 5 1008.7 1008.0 0.0
05/02:30am 27.5 24.6 2.6 20 12.3 NNE 7 11 4 6 1009.0 1008.3 0.0
05/02:00am 27.8 23.7 2.1 19 12.6 N 13 17 7 9 1009.3 1008.6 0.0
05/01:30am 28.0 23.5 2.2 19 12.7 NE 15 19 8 10 1009.4 1008.7 0.0
05/01:00am 28.9 24.0 2.2 18 13.2 NE 17 19 9 10 1009.7 1009.0 0.0
05/12:30am 29.7 25.7 2.9 18 13.5 NE 13 15 7 8 1010.0 1009.3 0.0
05/12:00am 30.9 25.7 2.2 16 14.4 ENE 19 20 10 11 1010.1 1009.4 0.0
 
Date/Time
CDT
Temp
°C
App
Temp
°C
Dew
Point
°C
Rel
Hum
%
Delta-T
°C
Wind Press
QNH
hPa
Press
MSL
hPa
Rain since
9am
mm
Dir  Spd
km/h
Gust
km/h
Spd
kts
Gust
kts
04/11:30pm 31.6 26.2 2.7 16 14.7 ENE 20 24 11 13 1010.1 1009.4 0.0
04/11:00pm 32.4 26.6 2.5 15 15.2 ENE 22 28 12 15 1010.1 1009.4 0.0
04/10:30pm 32.6 27.1 0.6 13 15.8 E 19 24 10 13 1009.8 1009.1 0.0
04/10:00pm 32.2 27.0 0.3 13 15.6 E 17 20 9 11 1009.5 1008.8 0.0
04/09:30pm 32.7 28.0 0.7 13 15.9 E 15 17 8 9 1009.4 1008.7 0.0
04/09:00pm 33.6 28.4 0.3 12 16.5 ESE 17 17 9 9 1009.0 1008.3 0.0
04/08:30pm 35.6 30.5 0.6 11 17.6 ESE 17 20 9 11 1008.7 1008.0 0.0
04/08:00pm 36.9 31.7 0.3 10 18.5 SE 17 20 9 11 1008.4 1007.7 0.0
04/07:30pm 37.8 32.2 1.0 10 18.9 SE 20 30 11 16 1008.0 1007.3 0.0
04/07:00pm 38.5 34.0 0.0 9 19.5 E 13 22 7 12 1007.8 1007.1 0.0
04/06:30pm 38.4 32.8 0.0 9 19.5 SE 19 32 10 17 1007.5 1006.8 0.0
04/06:00pm 38.8 35.2 0.3 9 19.7 E 9 19 5 10 1007.2 1006.5 0.0
04/05:30pm 39.3 34.2 0.6 9 19.9 E 17 24 9 13 1007.4 1006.7 0.0
04/05:00pm 39.2 33.1 0.6 9 19.8 ESE 22 43 12 23 1007.3 1006.6 0.0
04/04:30pm 38.2 34.7 1.3 10 19.1 SE 9 17 5 9 1007.6 1006.9 0.0
04/04:00pm 38.6 32.3 1.6 10 19.2 SE 24 32 13 17 1007.8 1007.1 0.0
04/03:30pm 39.2 33.9 2.0 10 19.6 SE 19 30 10 16 1008.2 1007.5 0.0
04/03:06pm 38.9 31.6 0.3 9 19.7 ESE 28 46 15 25 1008.5 1007.8 0.0
04/03:00pm 38.9 33.6 1.8 10 19.4 SE 19 46 10 25 1008.5 1007.8 0.0
04/02:30pm 38.4 34.2 1.4 10 19.2 ESE 13 24 7 13 1009.1 1008.4 0.0
04/02:00pm 38.7 34.0 3.0 11 19.0 ENE 17 30 9 16 1009.7 1009.0 0.0
04/01:30pm 37.5 33.8 4.4 13 17.9 ENE 13 26 7 14 1010.1 1009.4 0.0
04/01:00pm 36.6 32.2 2.6 12 17.8 SE 15 30 8 16 1010.3 1009.6 0.0
04/12:30pm 36.1 32.0 4.4 14 17.0 E 15 22 8 12 1010.8 1010.0 0.0
04/12:00pm 35.4 32.4 3.9 14 16.7 N 9 17 5 9 1011.1 1010.3 0.0
04/11:30am 36.2 33.1 5.5 15 16.8 NW 11 26 6 14 1011.3 1010.5 0.0
04/11:00am 34.9 30.1 4.4 15 16.2 NNE 19 28 10 15 1011.4 1010.6 0.0
04/10:30am 34.4 28.9 5.8 17 15.5 NNE 24 32 13 17 1011.5 1010.7 0.0
04/10:00am 34.0 27.8 6.3 18 15.1 NNE 28 33 15 18 1011.6 1010.8 0.0
04/09:30am 33.5 27.2 5.9 18 14.9 NNE 28 35 15 19 1011.4 1010.6 0.0
04/09:00am 32.5 27.0 5.9 19 14.3 NNE 24 32 13 17 1011.2 1010.4 0.0
04/08:30am 31.2 26.4 5.6 20 13.6 NNE 20 26 11 14 1011.0 1010.2 0.0
04/08:00am 29.7 25.7 5.1 21 12.9 NE 15 19 8 10 1010.6 1009.8 0.0
04/07:30am 25.7 23.1 4.2 25 10.8 E 7 9 4 5 1010.2 1009.5 0.0
04/07:00am 22.8 18.8 2.8 27 9.6 ENE 13 17 7 9 1009.8 1009.1 0.0
04/06:30am 23.2 19.3 3.2 27 9.7 NE 13 17 7 9 1009.7 1009.0 0.0
04/06:00am 22.0 19.7 2.7 28 9.2 SE 4 7 2 4 1009.6 1008.9 0.0
04/05:30am 23.3 21.9 3.3 27 9.7 CALM 0 0 0 0 1009.3 1008.6 0.0
04/05:00am 22.6 21.1 3.2 28 9.4 CALM 0 0 0 0 1009.2 1008.5 0.0
04/04:30am 22.9 19.9 1.9 25 9.9 ENE 7 11 4 6 1009.1 1008.4 0.0
04/04:00am 23.3 21.7 2.2 25 10.0 CALM 0 0 0 0 1009.1 1008.4 0.0
04/03:30am 24.3 21.8 3.6 26 10.2 ENE 6 9 3 5 1009.1 1008.4 0.0
04/03:00am 24.2 21.4 2.9 25 10.4 E 7 7 4 4 1009.2 1008.5 0.0
04/02:30am 24.8 21.2 2.9 24 10.7 E 11 13 6 7 1009.2 1008.5 0.0
04/02:00am 25.9 22.7 3.2 23 11.2 E 9 13 5 7 1009.6 1008.9 0.0
04/01:30am 26.0 23.2 3.3 23 11.3 ESE 7 9 4 5 1009.9 1009.2 0.0
04/01:00am 26.8 22.9 3.3 22 11.7 E 13 15 7 8 1010.0 1009.3 0.0
04/12:30am 28.2 24.6 3.1 20 12.6 ENE 11 13 6 7 1010.2 1009.5 0.0
04/12:00am 29.8 24.8 3.7 19 13.3 E 19 20 10 11 1010.3 1009.6 0.0
 
Date/Time
CDT
Temp
°C
App
Temp
°C
Dew
Point
°C
Rel
Hum
%
Delta-T
°C
Wind Press
QNH
hPa
Press
MSL
hPa
Rain since
9am
mm
Dir  Spd
km/h
Gust
km/h
Spd
kts
Gust
kts
03/11:30pm 30.4 25.4 3.4 18 13.8 E 19 20 10 11 1010.5 1009.7 0.0
03/11:00pm 30.9 25.6 3.0 17 14.2 E 20 24 11 13 1010.2 1009.5 0.0
03/10:30pm 31.8 25.6 2.0 15 15.0 E 24 32 13 17 1009.9 1009.2 0.0
03/10:00pm 32.6 25.9 1.7 14 15.5 E 26 37 14 20 1009.4 1008.7 0.0
03/09:30pm 33.2 25.7 1.1 13 16.1 E 30 39 16 21 1009.0 1008.3 0.0
03/09:00pm 33.9 27.4 2.7 14 16.1 E 26 35 14 19 1008.7 1008.0 0.0
03/08:30pm 34.4 28.9 4.0 15 16.1 ESE 22 28 12 15 1008.3 1007.6 0.0
03/08:00pm 35.4 31.2 3.9 14 16.7 ESE 15 20 8 11 1007.9 1007.2 0.0
03/07:30pm 35.9 31.6 3.2 13 17.2 SE 15 24 8 13 1007.6 1006.9 0.0
03/07:00pm 36.7 31.5 2.7 12 17.8 ESE 19 30 10 16 1007.3 1006.6 0.0
03/06:30pm 36.6 32.6 2.6 12 17.8 ENE 13 24 7 13 1007.1 1006.4 0.0
03/06:00pm 36.4 32.1 1.2 11 18.0 ESE 13 22 7 12 1007.0 1006.3 0.0
03/05:30pm 36.8 33.9 1.5 11 18.2 N 6 15 3 8 1007.1 1006.4 0.0
03/05:00pm 36.3 33.0 2.4 12 17.6 S 9 19 5 10 1007.2 1006.5 0.0
03/04:30pm 36.9 32.5 2.8 12 17.9 ESE 15 26 8 14 1007.4 1006.7 0.0
03/04:00pm 37.2 31.7 1.8 11 18.3 SE 20 32 11 17 1007.5 1006.8 0.0
03/03:30pm 36.7 32.3 2.7 12 17.8 SSW 15 30 8 16 1008.0 1007.3 0.0
03/03:00pm 36.4 31.7 1.2 11 18.0 SE 15 28 8 15 1008.2 1007.5 0.0
03/02:30pm 35.1 30.7 2.6 13 16.9 NE 15 28 8 15 1008.7 1008.0 0.0
03/02:00pm 36.0 32.5 3.3 13 17.2 S 11 24 6 13 1008.9 1008.2 0.0
03/01:30pm 34.3 30.3 3.0 14 16.3 ENE 13 19 7 10 1009.5 1008.8 0.0
03/01:00pm 34.7 30.4 3.3 14 16.4 ESE 15 28 8 15 1009.8 1009.1 0.0
03/12:30pm 33.5 29.2 3.3 15 15.7 NNE 15 26 8 14 1010.5 1009.7 0.0
03/12:00pm 33.9 30.3 2.7 14 16.1 NW 11 20 6 11 1010.7 1009.9 0.0
03/11:30am 33.7 29.2 4.4 16 15.5 ENE 17 30 9 16 1011.2 1010.4 0.0
03/11:00am 32.4 27.9 4.2 17 14.8 NE 17 28 9 15 1011.3 1010.5 0.0
03/10:30am 32.8 27.8 4.6 17 14.9 E 20 28 11 15 1011.3 1010.5 0.0
03/10:00am 32.5 26.7 2.5 15 15.3 E 22 32 12 17 1011.4 1010.6 0.0
03/09:30am 32.0 26.4 0.2 13 15.5 E 19 26 10 14 1011.5 1010.7 0.0

Other formats

Comma delimited format used in spreadsheet applications
http://www.bom.gov.au/fwo/IDS60801/IDS60801.94476.axf

JavaScript Object Notation format (JSON) in row-major order
http://www.bom.gov.au/fwo/IDS60801/IDS60801.94476.json

Data quality

Most of these data are generated automatically and are frequently updated. Quality checks on data are not normally performed. It is possible for incorrect values to appear. Refer to information at About Latest Weather Observations and please check the disclaimer before using these data.